Time;durP1;ratioP1;P1;durP2;ratioP2;P2;SDS_P1;SDS_P2;PMS_P1;PMS_P2;Temp;Humidity;BMP_temperature;BMP_pressure;BME280_temperature;BME280_humidity;BME280_pressure;Samples;Min_cycle;Max_cycle;Signal;HPM_P1;HPM_P2
2022/03/29 00:00:17;;;;;;;19.35;8.98;;;;;;;4.89;79.16;98818.44;5000348;28;20531;-84
2022/03/29 00:02:44;;;;;;;18.85;8.50;;;;;;;4.79;79.10;98812.31;4994788;28;20072;-84
2022/03/29 00:05:11;;;;;;;16.88;8.27;;;;;;;4.85;79.50;98811.69;5007662;28;20057;-84
2022/03/29 00:07:37;;;;;;;16.83;8.48;;;;;;;4.73;81.10;98808.38;4994013;28;20060;-84
2022/03/29 00:10:06;;;;;;;15.00;7.95;;;;;;;4.97;79.52;98810.41;5009851;28;20042;-84
2022/03/29 00:12:34;;;;;;;15.25;8.70;;;;;;;4.97;79.87;98820.34;5010697;28;20070;-84
2022/03/29 00:15:02;;;;;;;12.93;6.88;;;;;;;4.91;79.76;98804.81;5013908;28;20143;-84
2022/03/29 00:17:31;;;;;;;18.85;8.15;;;;;;;4.86;80.91;98790.97;5010112;28;20069;-84
2022/03/29 00:19:58;;;;;;;12.05;7.32;;;;;;;4.91;81.01;98799.44;5024349;28;20054;-83
2022/03/29 00:22:25;;;;;;;11.50;8.13;;;;;;;4.78;83.36;98778.28;4990859;28;20053;-84
2022/03/29 00:24:52;;;;;;;12.38;6.95;;;;;;;4.92;83.49;98801.97;5008387;28;20073;-84
2022/03/29 00:27:21;;;;;;;13.85;6.95;;;;;;;4.88;83.19;98789.81;5010816;28;20050;-84
2022/03/29 00:29:47;;;;;;;17.17;7.07;;;;;;;4.80;83.57;98784.34;5010724;28;20046;-84
2022/03/29 00:32:16;;;;;;;14.02;7.60;;;;;;;4.65;84.89;98789.47;5012001;28;20081;-83
2022/03/29 00:34:45;;;;;;;13.65;7.88;;;;;;;4.46;85.63;98768.97;5017466;28;20049;-84
2022/03/29 00:37:12;;;;;;;17.63;8.00;;;;;;;4.42;86.81;98771.09;5022386;28;20290;-83
2022/03/29 00:39:39;;;;;;;19.00;6.93;;;;;;;4.53;86.20;98796.97;5015906;28;20062;-84
2022/03/29 00:42:06;;;;;;;18.90;6.93;;;;;;;4.53;85.42;98786.19;5010237;28;20369;-84
2022/03/29 00:44:35;;;;;;;13.02;7.40;;;;;;;4.47;85.77;98791.34;4998587;28;20062;-84
2022/03/29 00:47:02;;;;;;;17.60;7.35;;;;;;;4.48;86.56;98785.78;5008409;28;20054;-84
2022/03/29 00:49:30;;;;;;;12.93;6.88;;;;;;;4.44;87.86;98787.09;5030221;28;20054;-84
2022/03/29 00:52:01;;;;;;;11.80;7.00;;;;;;;4.44;86.33;98768.25;5030780;28;20077;-83
2022/03/29 00:54:30;;;;;;;17.02;8.00;;;;;;;4.36;85.74;98747.50;5014802;28;20037;-84
2022/03/29 00:56:57;;;;;;;13.75;7.20;;;;;;;4.56;86.41;98744.63;5019635;28;20049;-84
2022/03/29 00:59:25;;;;;;;14.98;6.97;;;;;;;4.61;88.03;98771.94;5025403;28;20053;-84
2022/03/29 01:01:51;;;;;;;13.02;7.05;;;;;;;4.36;88.41;98747.50;5018403;28;20068;-84
2022/03/29 01:04:20;;;;;;;11.73;7.25;;;;;;;4.22;88.87;98746.22;5031323;28;20041;-84
2022/03/29 01:06:48;;;;;;;18.15;7.05;;;;;;;4.16;89.59;98757.59;5033892;28;20065;-83
2022/03/29 01:09:15;;;;;;;13.15;7.28;;;;;;;4.34;88.96;98738.75;5012293;28;20104;-84
2022/03/29 01:11:42;;;;;;;12.70;7.03;;;;;;;4.34;89.57;98732.53;5012347;28;20053;-83
2022/03/29 01:14:09;;;;;;;16.88;7.95;;;;;;;4.25;90.05;98734.31;5007811;28;20050;-83
2022/03/29 01:19:23;;;;;;;16.02;7.63;;;;;;;4.31;88.53;98728.31;4994817;28;20061;-83
2022/03/29 01:21:57;;;;;;;12.50;7.18;;;;;;;4.30;89.39;98733.84;4993971;28;20065;-83
2022/03/29 01:24:25;;;;;;;11.32;6.45;;;;;;;4.30;89.14;98706.94;5008619;28;20054;-83
2022/03/29 01:26:53;;;;;;;13.27;6.57;;;;;;;4.31;89.51;98722.09;5005244;28;20073;-84
2022/03/29 01:29:20;;;;;;;11.90;6.65;;;;;;;4.35;89.16;98713.53;5006112;28;20046;-84
2022/03/29 01:31:49;;;;;;;12.60;6.78;;;;;;;4.38;89.64;98720.44;5010058;28;20081;-83
2022/03/29 01:34:16;;;;;;;14.88;7.05;;;;;;;4.27;89.24;98723.38;5008913;28;20060;-83
2022/03/29 01:36:43;;;;;;;11.52;6.82;;;;;;;4.17;90.54;98713.56;5008669;28;20515;-83
2022/03/29 01:39:14;;;;;;;15.90;7.55;;;;;;;3.91;92.26;98683.88;4996399;28;20192;-84
2022/03/29 01:41:40;;;;;;;13.38;6.53;;;;;;;3.94;92.97;98680.06;4991039;28;20046;-84
2022/03/29 01:44:08;;;;;;;12.23;6.82;;;;;;;3.93;93.62;98692.66;5008529;28;20129;-84
2022/03/29 01:46:35;;;;;;;13.88;7.15;;;;;;;4.05;93.26;98701.31;4990329;28;20062;-83
2022/03/29 01:49:02;;;;;;;12.13;6.07;;;;;;;4.01;91.87;98667.69;4996313;28;20509;-83
2022/03/29 01:51:29;;;;;;;13.38;6.97;;;;;;;4.14;90.38;98672.66;5010725;28;20045;-84
2022/03/29 01:53:57;;;;;;;13.93;7.32;;;;;;;4.10;92.09;98682.06;5005033;28;20077;-84
2022/03/29 01:56:29;;;;;;;11.55;6.90;;;;;;;3.98;91.95;98670.69;5002278;28;20062;-84
2022/03/29 01:58:56;;;;;;;11.57;6.38;;;;;;;4.16;91.14;98684.97;5001026;28;20112;-83
2022/03/29 02:01:23;;;;;;;15.75;7.30;;;;;;;3.95;92.04;98663.75;5010167;28;20141;-84
2022/03/29 02:03:50;;;;;;;13.20;7.70;;;;;;;3.83;93.18;98663.16;5012144;28;20120;-84
2022/03/29 02:06:17;;;;;;;14.48;7.60;;;;;;;3.94;93.38;98656.69;5007270;28;20513;-84
2022/03/29 02:08:44;;;;;;;14.25;6.68;;;;;;;4.06;93.04;98677.00;5005407;28;20056;-84
2022/03/29 02:11:10;;;;;;;15.38;6.53;;;;;;;3.93;92.74;98659.53;5006088;28;20070;-84
2022/03/29 02:13:41;;;;;;;11.10;7.00;;;;;;;3.88;93.69;98677.00;5009028;28;20058;-84
2022/03/29 02:16:08;;;;;;;17.65;6.50;;;;;;;3.96;93.23;98675.34;5001925;28;20371;-84
2022/03/29 02:18:35;;;;;;;15.00;7.88;;;;;;;4.05;92.17;98674.41;5029071;28;20501;-84
2022/03/29 02:21:02;;;;;;;12.65;7.63;;;;;;;3.96;92.96;98662.78;5010222;28;20089;-83
2022/03/29 02:23:28;;;;;;;11.43;6.82;;;;;;;3.88;93.25;98657.31;5025132;28;20050;-84
2022/03/29 02:25:55;;;;;;;16.45;6.78;;;;;;;3.83;92.99;98646.19;4994036;28;20050;-84
2022/03/29 02:28:22;;;;;;;17.30;6.35;;;;;;;3.96;93.23;98670.84;5008959;28;20050;-84
2022/03/29 02:30:51;;;;;;;13.05;6.60;;;;;;;3.86;94.93;98638.63;5011122;28;20433;-84
2022/03/29 02:33:17;;;;;;;11.98;6.35;;;;;;;3.75;96.98;98627.28;5002688;28;20048;-84
2022/03/29 02:35:44;;;;;;;10.45;6.80;;;;;;;3.90;97.37;98652.63;4993687;28;20129;-84
2022/03/29 02:38:12;;;;;;;14.80;7.25;;;;;;;3.92;96.22;98657.88;5010554;28;20081;-84
2022/03/29 02:40:42;;;;;;;13.65;7.18;;;;;;;3.84;95.92;98653.22;5008486;28;20412;-84
2022/03/29 02:43:09;;;;;;;15.15;8.82;;;;;;;3.90;96.00;98669.59;5023023;28;20053;-84
2022/03/29 02:45:35;;;;;;;14.43;7.85;;;;;;;3.77;93.22;98650.31;5009983;28;20555;-84
2022/03/29 02:48:05;;;;;;;19.85;7.78;;;;;;;3.80;92.40;98671.53;5016685;28;20469;-84
2022/03/29 02:50:34;;;;;;;17.88;8.23;;;;;;;3.93;92.65;98675.66;5004262;28;20080;-84
2022/03/29 02:53:04;;;;;;;15.65;7.85;;;;;;;3.80;93.07;98654.56;5013896;28;20720;-84
2022/03/29 02:55:33;;;;;;;12.10;7.07;;;;;;;3.74;93.81;98644.41;4997271;28;20046;-84
2022/03/29 02:57:59;;;;;;;13.45;7.38;;;;;;;3.62;93.78;98643.81;5001301;28;20042;-84
2022/03/29 03:00:27;;;;;;;20.40;7.95;;;;;;;3.82;93.04;98652.56;5000622;28;20039;-84
2022/03/29 03:02:55;;;;;;;16.33;7.72;;;;;;;3.71;93.80;98638.34;5006805;28;20049;-84
2022/03/29 03:05:24;;;;;;;13.93;7.15;;;;;;;3.69;93.40;98626.91;5012758;28;20478;-84
2022/03/29 03:07:51;;;;;;;17.63;7.55;;;;;;;3.72;93.81;98633.81;5028157;28;20137;-84
2022/03/29 03:10:19;;;;;;;13.65;7.70;;;;;;;3.62;94.95;98638.44;5012728;28;20495;-83
2022/03/29 03:12:48;;;;;;;15.20;7.68;;;;;;;3.67;94.68;98649.56;5010689;28;20057;-83
2022/03/29 03:15:22;;;;;;;13.65;6.95;;;;;;;3.77;94.24;98654.88;5003960;28;20580;-84
2022/03/29 03:17:51;;;;;;;16.60;8.13;;;;;;;3.65;94.00;98628.19;5012654;28;20503;-84
2022/03/29 03:20:17;;;;;;;17.25;7.88;;;;;;;3.63;94.41;98616.78;5032292;28;20046;-84
2022/03/29 03:22:46;;;;;;;15.95;8.18;;;;;;;3.55;94.54;98619.38;5012474;28;20057;-84
2022/03/29 03:25:13;;;;;;;13.73;7.50;;;;;;;3.61;96.72;98634.03;5032286;28;20052;-84
2022/03/29 03:27:40;;;;;;;17.63;8.35;;;;;;;3.55;98.11;98619.38;5004522;28;20042;-84
2022/03/29 03:30:10;;;;;;;14.73;6.95;;;;;;;3.58;98.37;98624.44;5002564;28;20494;-84
2022/03/29 03:32:37;;;;;;;15.13;6.90;;;;;;;3.54;97.92;98629.28;5004605;28;20045;-84
2022/03/29 03:35:04;;;;;;;13.43;7.35;;;;;;;3.57;97.45;98612.00;5015426;28;20141;-84
2022/03/29 03:37:31;;;;;;;16.08;7.57;;;;;;;3.62;95.81;98615.06;4994511;28;20070;-84
2022/03/29 03:39:59;;;;;;;16.00;7.60;;;;;;;3.66;95.89;98612.94;4992519;28;20054;-84
2022/03/29 03:42:26;;;;;;;14.43;7.90;;;;;;;3.59;96.29;98607.31;4993035;28;20092;-84
2022/03/29 03:44:53;;;;;;;12.45;7.22;;;;;;;3.55;96.98;98616.69;4992557;28;20494;-84
2022/03/29 03:47:20;;;;;;;13.68;7.80;;;;;;;3.32;97.56;98608.22;5008462;28;20046;-84
2022/03/29 03:49:48;;;;;;;14.25;6.82;;;;;;;3.30;97.42;98588.75;5000839;28;20074;-84
2022/03/29 03:52:15;;;;;;;18.45;8.40;;;;;;;3.40;96.82;98605.59;5005206;28;20100;-84
2022/03/29 03:54:44;;;;;;;12.65;7.88;;;;;;;3.50;96.46;98608.25;5008436;28;20059;-84
2022/03/29 03:57:12;;;;;;;14.38;7.80;;;;;;;3.60;95.91;98610.84;5010680;28;20104;-84
2022/03/29 03:59:38;;;;;;;13.43;7.13;;;;;;;3.58;96.43;98627.13;5005828;28;20104;-83
2022/03/29 04:02:05;;;;;;;18.50;8.48;;;;;;;3.52;96.57;98615.16;5010176;28;20050;-84
2022/03/29 04:04:32;;;;;;;14.38;7.57;;;;;;;3.24;97.56;98606.31;5011719;28;20152;-84
2022/03/29 04:06:59;;;;;;;15.90;8.10;;;;;;;3.31;97.02;98604.72;4998509;28;20109;-84
2022/03/29 04:09:27;;;;;;;17.42;7.82;;;;;;;3.29;98.12;98600.47;5014186;28;20045;-84
2022/03/29 04:11:53;;;;;;;16.45;8.15;;;;;;;3.08;97.71;98574.75;5011146;28;20053;-84
2022/03/29 04:14:21;;;;;;;18.45;8.43;;;;;;;3.04;98.75;98592.16;5002732;28;20050;-84
2022/03/29 04:16:48;;;;;;;14.73;9.07;;;;;;;3.20;98.93;98602.22;4989961;28;20050;-84
2022/03/29 04:19:15;;;;;;;17.58;8.38;;;;;;;3.14;98.71;98582.19;5018696;28;20049;-83
2022/03/29 04:21:42;;;;;;;13.70;7.63;;;;;;;3.31;98.54;98611.91;5011237;28;20141;-84
2022/03/29 04:24:08;;;;;;;12.82;7.97;;;;;;;3.25;98.24;98599.09;5002147;28;20058;-84
2022/03/29 04:26:35;;;;;;;26.65;9.52;;;;;;;3.17;98.77;98581.03;4991506;28;20141;-83
2022/03/29 04:29:02;;;;;;;13.00;7.65;;;;;;;3.09;99.95;98579.13;5009031;28;20073;-84
2022/03/29 04:31:30;;;;;;;14.30;7.95;;;;;;;2.99;99.56;98589.06;5010153;28;20046;-84
2022/03/29 04:33:58;;;;;;;13.15;7.22;;;;;;;2.89;99.97;98572.16;5019997;28;20129;-83
2022/03/29 04:36:25;;;;;;;16.10;7.60;;;;;;;3.08;100.00;98590.84;5008777;28;20397;-84
2022/03/29 04:38:51;;;;;;;26.90;9.27;;;;;;;2.94;100.00;98580.63;5009568;28;20133;-84
2022/03/29 04:41:18;;;;;;;19.65;7.97;;;;;;;2.70;100.00;98549.81;5002642;28;20046;-84
2022/03/29 04:43:45;;;;;;;17.10;7.85;;;;;;;2.97;100.00;98580.34;5004359;28;20069;-84
2022/03/29 04:46:12;;;;;;;13.95;7.75;;;;;;;2.96;99.56;98560.69;5010772;28;20264;-84
2022/03/29 04:48:40;;;;;;;15.32;7.38;;;;;;;2.97;100.00;98583.03;5018049;28;20446;-84
2022/03/29 04:51:06;;;;;;;12.25;6.95;;;;;;;2.75;100.00;98554.75;4998225;28;20049;-84
2022/03/29 04:53:33;;;;;;;16.27;7.57;;;;;;;2.73;100.00;98554.06;5011087;28;20046;-84
2022/03/29 04:56:00;;;;;;;14.52;7.93;;;;;;;2.95;99.57;98558.13;5029071;28;20077;-84
2022/03/29 04:58:27;;;;;;;12.93;7.32;;;;;;;2.92;100.00;98545.88;5008672;28;20073;-84
2022/03/29 05:00:54;;;;;;;16.15;7.47;;;;;;;2.89;100.00;98566.81;5000427;28;20127;-84
2022/03/29 05:03:22;;;;;;;11.85;7.25;;;;;;;2.85;100.00;98570.81;5002331;28;20128;-84
2022/03/29 05:05:54;;;;;;;13.63;6.97;;;;;;;2.76;100.00;98559.97;5003720;28;20527;-84
2022/03/29 05:08:24;;;;;;;16.92;7.70;;;;;;;2.76;100.00;98557.28;5011556;28;20069;-84
2022/03/29 05:10:51;;;;;;;22.40;8.75;;;;;;;3.01;100.00;98563.75;5000739;28;20149;-84
2022/03/29 05:13:20;;;;;;;19.65;8.60;;;;;;;2.97;100.00;98540.06;4991511;28;20519;-84
2022/03/29 05:15:48;;;;;;;16.45;6.97;;;;;;;3.16;99.92;98552.47;5008138;28;20082;-84
2022/03/29 05:18:17;;;;;;;23.95;8.40;;;;;;;3.13;99.78;98534.84;5021092;28;20042;-84
2022/03/29 05:20:44;;;;;;;14.75;7.03;;;;;;;3.11;100.00;98566.38;5028374;28;20584;-82
2022/03/29 05:23:17;;;;;;;15.68;7.20;;;;;;;3.11;100.00;98550.25;5021106;28;20639;-84
2022/03/29 05:25:44;;;;;;;18.05;7.78;;;;;;;3.16;100.00;98545.28;5010392;28;20066;-84
2022/03/29 05:28:11;;;;;;;13.52;7.35;;;;;;;3.38;99.18;98580.75;5012953;28;20132;-84
2022/03/29 05:30:38;;;;;;;16.20;7.93;;;;;;;3.12;100.00;98548.44;5006673;28;20050;-84
2022/03/29 05:33:05;;;;;;;16.35;6.68;;;;;;;3.13;99.95;98534.84;5002614;28;20050;-84
2022/03/29 05:35:33;;;;;;;16.80;7.80;;;;;;;3.03;100.00;98552.88;5009532;28;20140;-84
2022/03/29 05:38:03;;;;;;;14.00;6.70;;;;;;;2.97;100.00;98566.91;5008400;28;20100;-84
2022/03/29 05:40:31;;;;;;;;;;;;;;;3.18;100.00;98567.47;4993909;28;20049;-84
2022/03/29 05:42:58;;;;;;;15.55;7.63;;;;;;;3.15;100.00;98540.06;5014428;28;19927;-84
2022/03/29 05:45:25;;;;;;;20.65;8.50;;;;;;;3.26;100.00;98568.53;5014242;28;20493;-84
2022/03/29 05:50:39;;;;;;;15.10;7.50;;;;;;;3.50;99.40;98566.06;5003569;28;20410;-84
2022/03/29 05:53:05;;;;;;;18.73;7.50;;;;;;;3.59;98.89;98572.38;5002960;28;20069;-84
2022/03/29 05:55:35;;;;;;;11.52;7.50;;;;;;;3.67;98.54;98550.94;5009509;28;20057;-84
2022/03/29 05:58:02;;;;;;;14.70;7.90;;;;;;;3.82;98.48;98559.28;4995413;28;20061;-84
2022/03/29 06:00:30;;;;;;;20.15;8.48;;;;;;;3.94;97.70;98567.94;5001655;28;20054;-84
2022/03/29 06:02:57;;;;;;;13.70;7.43;;;;;;;3.76;97.81;98538.38;5012298;28;20466;-84
2022/03/29 06:05:24;;;;;;;13.50;7.75;;;;;;;3.90;98.19;98521.69;5014778;28;20056;-84
2022/03/29 06:07:51;;;;;;;16.10;8.02;;;;;;;4.14;96.61;98540.81;5008439;28;20137;-84
2022/03/29 06:10:17;;;;;;;16.27;7.30;;;;;;;4.27;96.31;98535.84;5002232;28;20137;-84
2022/03/29 06:12:47;;;;;;;21.75;8.50;;;;;;;4.51;95.92;98543.22;5006126;28;20052;-84
2022/03/29 06:15:17;;;;;;;20.77;8.55;;;;;;;4.77;95.73;98561.16;5007981;28;20069;-84
2022/03/29 06:17:43;;;;;;;23.50;8.25;;;;;;;4.72;93.40;98542.78;5028860;28;20049;-84
2022/03/29 06:20:11;;;;;;;18.98;9.07;;;;;;;5.04;93.46;98567.31;5004362;28;20044;-84
2022/03/29 06:22:40;;;;;;;14.52;7.97;;;;;;;5.16;93.37;98565.16;5010810;28;20046;-84
2022/03/29 06:25:08;;;;;;;14.35;7.18;;;;;;;5.19;92.58;98562.97;5007711;28;20464;-83
2022/03/29 06:27:34;;;;;;;11.90;6.05;;;;;;;4.91;91.94;98538.16;5001922;28;20070;-84
2022/03/29 06:30:03;;;;;;;16.45;7.40;;;;;;;4.98;93.29;98558.03;5008046;28;20064;-84
2022/03/29 06:32:30;;;;;;;17.23;7.20;;;;;;;4.99;93.55;98546.25;4996488;28;20065;-83
2022/03/29 06:34:57;;;;;;;18.45;7.60;;;;;;;5.12;92.35;98565.47;5004658;28;20126;-84
2022/03/29 06:37:23;;;;;;;16.45;7.55;;;;;;;5.32;91.79;98576.78;5008533;28;20058;-84
2022/03/29 06:39:50;;;;;;;13.07;7.22;;;;;;;5.51;89.87;98574.81;5008391;28;20090;-84
2022/03/29 06:42:18;;;;;;;14.25;7.72;;;;;;;5.64;90.48;98564.34;5006692;28;20050;-84
2022/03/29 06:44:45;;;;;;;15.05;8.30;;;;;;;5.73;93.08;98567.91;5007120;28;20054;-83
2022/03/29 06:47:14;;;;;;;26.88;10.32;;;;;;;5.79;95.55;98566.41;5012054;28;20141;-84
2022/03/29 06:49:41;;;;;;;25.80;10.93;;;;;;;5.96;96.41;98570.78;5006983;28;20109;-84
2022/03/29 06:52:11;;;;;;;25.05;10.65;;;;;;;5.91;95.85;98550.72;5001691;28;20504;-84
2022/03/29 06:54:38;;;;;;;25.23;10.30;;;;;;;6.09;95.68;98550.56;5005396;28;20051;-84
2022/03/29 06:57:09;;;;;;;25.00;10.60;;;;;;;6.21;92.94;98559.97;5009917;28;20156;-83
2022/03/29 06:59:37;;;;;;;23.75;9.45;;;;;;;6.46;91.13;98562.59;5008583;28;20045;-83
2022/03/29 07:02:09;;;;;;;21.55;10.68;;;;;;;6.58;93.34;98561.22;5014164;28;20137;-85
2022/03/29 07:04:37;;;;;;;17.73;8.50;;;;;;;6.53;92.22;98556.34;5014771;28;20552;-84
2022/03/29 07:07:05;;;;;;;15.13;7.70;;;;;;;6.75;89.36;98562.00;5007606;28;20680;-84
2022/03/29 07:12:18;;;;;;;15.65;7.95;;;;;;;6.96;88.12;98565.97;5010581;28;20077;-84
2022/03/29 07:14:45;;;;;;;16.58;7.72;;;;;;;7.11;87.61;98561.50;5011891;28;20081;-85
2022/03/29 07:17:13;;;;;;;14.25;7.85;;;;;;;7.22;86.40;98541.31;5011202;28;20576;-85
2022/03/29 07:19:41;;;;;;;18.58;8.48;;;;;;;7.27;86.07;98530.81;5014459;28;20501;-85
2022/03/29 07:22:11;;;;;;;21.10;9.07;;;;;;;7.55;83.76;98566.28;5006338;28;20497;-84
2022/03/29 07:24:40;;;;;;;17.42;8.20;;;;;;;7.59;80.93;98540.56;5010415;28;20060;-85
2022/03/29 07:27:09;;;;;;;19.38;8.65;;;;;;;7.58;83.70;98543.44;5008765;28;20093;-85
2022/03/29 07:29:35;;;;;;;19.35;10.25;;;;;;;7.74;82.10;98561.44;4992331;28;20947;-84
2022/03/29 07:32:02;;;;;;;21.30;10.95;;;;;;;7.84;81.46;98555.75;4998764;28;20137;-84
2022/03/29 07:34:29;;;;;;;20.25;10.05;;;;;;;8.04;80.17;98562.34;5010633;28;20066;-85
2022/03/29 07:36:57;;;;;;;16.38;9.27;;;;;;;8.15;77.61;98548.34;5011894;28;20046;-85
2022/03/29 07:39:24;;;;;;;21.30;9.10;;;;;;;8.37;76.57;98566.56;5011538;28;20041;-84
2022/03/29 07:41:51;;;;;;;26.00;11.77;;;;;;;8.50;76.56;98574.94;5011760;28;20081;-84
2022/03/29 07:44:18;;;;;;;16.08;8.77;;;;;;;8.37;76.54;98553.91;5011421;28;20072;-84
2022/03/29 07:46:45;;;;;;;20.90;9.02;;;;;;;8.59;76.96;98567.56;5000508;28;20062;-85
2022/03/29 07:49:11;;;;;;;20.60;8.57;;;;;;;8.56;76.08;98546.25;5011744;28;20481;-85
2022/03/29 07:51:38;;;;;;;20.88;9.20;;;;;;;8.70;75.98;98545.41;5011806;28;20494;-85
2022/03/29 07:54:07;;;;;;;24.80;9.65;;;;;;;8.89;75.44;98549.41;5012040;28;20053;-85
2022/03/29 07:56:33;;;;;;;24.92;9.40;;;;;;;8.99;73.24;98541.81;5011896;28;20263;-84
2022/03/29 07:59:00;;;;;;;22.75;9.40;;;;;;;9.17;71.32;98540.59;5011522;28;20382;-85
2022/03/29 08:01:28;;;;;;;18.08;9.27;;;;;;;9.27;70.35;98551.94;5009089;28;20050;-85
2022/03/29 08:03:56;;;;;;;23.67;10.13;;;;;;;9.52;69.79;98548.88;5009632;28;20052;-85
2022/03/29 08:06:22;;;;;;;20.42;8.98;;;;;;;9.61;69.37;98533.31;5011353;28;20057;-85
2022/03/29 08:08:49;;;;;;;26.83;9.48;;;;;;;9.73;67.33;98537.19;5011169;28;20053;-85
2022/03/29 08:11:18;;;;;;;25.58;9.55;;;;;;;9.91;67.29;98553.84;5011610;28;20108;-85
2022/03/29 08:13:46;;;;;;;18.13;9.63;;;;;;;9.93;65.91;98529.19;5010832;28;20057;-85
2022/03/29 08:16:12;;;;;;;23.80;8.98;;;;;;;10.12;64.65;98557.56;5011433;28;20046;-84
2022/03/29 08:18:39;;;;;;;17.15;9.20;;;;;;;10.10;64.75;98524.31;5010902;28;20132;-86
2022/03/29 08:21:47;;;;;;;21.30;9.50;;;;;;;10.53;64.48;98547.84;5008482;28;20128;-85
2022/03/29 08:23:53;;;;;;;24.35;9.77;;;;;;;10.63;65.15;98532.84;5010518;28;20046;-86
2022/03/29 08:26:21;;;;;;;23.67;9.95;;;;;;;10.62;63.08;98530.34;5010766;28;20050;-83
2022/03/29 08:28:48;;;;;;;25.33;9.73;;;;;;;10.85;63.38;98538.19;5010933;28;20060;-84
2022/03/29 08:31:14;;;;;;;26.98;9.45;;;;;;;10.78;62.96;98545.47;5011003;28;20061;-84
2022/03/29 08:33:41;;;;;;;20.30;8.95;;;;;;;10.89;62.83;98542.19;5010022;28;20062;-84
2022/03/29 08:36:08;;;;;;;18.17;10.13;;;;;;;11.02;61.88;98530.53;5009918;28;20057;-84
2022/03/29 08:38:35;;;;;;;21.10;9.98;;;;;;;11.01;59.73;98517.97;5010947;28;20072;-84
2022/03/29 08:41:01;;;;;;;23.95;10.57;;;;;;;11.22;59.82;98529.75;5010851;28;20060;-84
2022/03/29 08:43:31;;;;;;;26.83;9.45;;;;;;;11.35;58.70;98518.91;5007812;28;20119;-84
2022/03/29 08:45:58;;;;;;;17.52;9.50;;;;;;;11.54;57.04;98539.03;5009269;28;20058;-84
2022/03/29 08:48:26;;;;;;;17.58;9.65;;;;;;;11.55;57.83;98551.63;5010209;28;20096;-84
2022/03/29 08:50:55;;;;;;;23.77;10.05;;;;;;;11.57;56.67;98521.47;5010371;28;20050;-85
2022/03/29 08:53:22;;;;;;;27.63;10.60;;;;;;;11.84;56.82;98541.38;5012541;28;20057;-84
2022/03/29 08:55:49;;;;;;;16.55;8.43;;;;;;;11.87;57.20;98538.25;5012547;28;20485;-84
2022/03/29 08:58:17;;;;;;;32.47;9.73;;;;;;;11.72;56.91;98530.28;5010412;28;20054;-84
2022/03/29 09:00:48;;;;;;;28.55;10.00;;;;;;;11.71;57.90;98539.47;5010212;28;20061;-84
2022/03/29 09:03:17;;;;;;;19.23;9.68;;;;;;;11.89;57.58;98527.13;5010219;28;20366;-84
2022/03/29 09:05:44;;;;;;;24.45;10.60;;;;;;;11.85;57.41;98538.44;5010396;28;20133;-85
2022/03/29 09:08:13;;;;;;;21.55;10.70;;;;;;;11.74;55.73;98538.22;5010680;28;20073;-84
2022/03/29 09:10:41;;;;;;;22.80;10.82;;;;;;;11.86;57.00;98545.59;5010171;28;20096;-84
2022/03/29 09:13:16;;;;;;;24.60;10.73;;;;;;;11.89;57.35;98535.31;5009980;28;20119;-85
2022/03/29 09:15:42;;;;;;;23.30;10.95;;;;;;;11.86;59.51;98533.84;5007704;28;20057;-85
2022/03/29 09:18:11;;;;;;;21.45;9.50;;;;;;;11.84;54.76;98525.03;5009683;28;20363;-85
2022/03/29 09:20:39;;;;;;;20.98;11.13;;;;;;;11.81;54.17;98525.47;5010118;28;20493;-84
2022/03/29 09:23:06;;;;;;;26.80;10.80;;;;;;;11.88;54.08;98531.75;5009942;28;20104;-85
2022/03/29 09:25:36;;;;;;;22.70;10.85;;;;;;;11.96;55.47;98517.13;5009185;28;20053;-85
2022/03/29 09:28:03;;;;;;;;;;;;;;;12.14;54.61;98530.94;5010538;28;20140;-85
2022/03/29 09:30:38;;;;;;;21.77;10.60;;;;;;;12.27;54.82;98527.38;5009991;28;20015;-84
2022/03/29 09:33:07;;;;;;;23.90;11.50;;;;;;;12.09;54.31;98513.53;5006875;28;20046;-85
2022/03/29 09:35:51;;;;;;;23.77;11.90;;;;;;;12.20;54.62;98513.75;5008130;28;20374;-85
2022/03/29 09:38:23;;;;;;;29.05;11.65;;;;;;;12.41;53.30;98503.66;4989724;28;20050;-85
2022/03/29 09:40:50;;;;;;;28.67;11.68;;;;;;;12.65;52.70;98506.75;5008314;28;20492;-85
2022/03/29 09:43:16;;;;;;;23.42;11.70;;;;;;;12.83;52.66;98516.97;5008984;28;20054;-85
2022/03/29 09:45:46;;;;;;;24.15;12.02;;;;;;;12.86;52.82;98492.81;5009008;28;20077;-84
2022/03/29 09:48:35;;;;;;;26.48;13.48;;;;;;;12.84;51.03;98497.66;5009599;28;20050;-85
2022/03/29 09:51:22;;;;;;;38.72;13.00;;;;;;;12.97;50.79;98494.03;5005478;28;20416;-85
2022/03/29 09:53:51;;;;;;;29.73;12.25;;;;;;;13.14;50.25;98490.78;5009049;28;20056;-83
2022/03/29 09:56:24;;;;;;;26.37;14.00;;;;;;;13.06;50.03;98500.91;5008122;28;20089;-83
2022/03/29 09:59:06;;;;;;;29.55;13.35;;;;;;;13.13;50.31;98495.44;5000104;28;20788;-83
2022/03/29 10:01:34;;;;;;;28.45;13.15;;;;;;;13.31;49.74;98491.97;5005775;28;20410;-83
2022/03/29 10:04:02;;;;;;;25.95;12.75;;;;;;;13.39;49.94;98479.97;5008009;28;20418;-83
2022/03/29 10:06:32;;;;;;;28.20;13.90;;;;;;;13.42;50.10;98460.44;5009713;28;20142;-84
2022/03/29 10:11:46;;;;;;;44.92;14.55;;;;;;;13.66;48.62;98480.63;5010335;28;20072;-84
2022/03/29 10:14:15;;;;;;;26.27;13.40;;;;;;;13.57;49.43;98457.38;5010886;28;20049;-83
2022/03/29 10:16:44;;;;;;;34.15;14.85;;;;;;;13.79;49.14;98463.31;5011563;28;20057;-83
2022/03/29 10:19:12;;;;;;;29.58;14.38;;;;;;;14.18;50.51;98471.34;5004596;28;20045;-84
2022/03/29 10:21:42;;;;;;;26.35;13.10;;;;;;;13.84;48.21;98459.91;5009569;28;20490;-84
2022/03/29 10:24:09;;;;;;;;;;;;;;;14.04;50.60;98452.34;5009030;28;20046;-84
2022/03/29 10:26:36;;;;;;;33.70;14.20;;;;;;;14.06;48.15;98443.91;5009561;28;20019;-84
2022/03/29 10:29:07;;;;;;;29.55;13.90;;;;;;;14.14;47.61;98452.66;5008870;28;20138;-84
2022/03/29 10:31:36;;;;;;;32.28;15.13;;;;;;;14.10;46.80;98432.31;5029133;28;20045;-85
2022/03/29 10:34:19;;;;;;;28.98;13.88;;;;;;;14.24;46.85;98445.84;5025863;28;20045;-85
2022/03/29 10:37:18;;;;;;;30.25;14.00;;;;;;;14.75;47.39;98438.34;5003240;28;20062;-84
2022/03/29 10:39:51;;;;;;;39.20;14.15;;;;;;;14.75;47.09;98439.19;5012463;28;20117;-84
2022/03/29 10:42:37;;;;;;;27.42;13.30;;;;;;;14.83;45.32;98418.91;5011809;28;20046;-84
2022/03/29 10:45:07;;;;;;;28.77;13.43;;;;;;;14.96;45.32;98410.47;5012651;28;20071;-84
2022/03/29 10:47:34;;;;;;;;;;;;;;;15.12;45.03;98424.63;5029905;28;20061;-85
2022/03/29 10:50:02;;;;;;;28.77;12.52;;;;;;;15.33;46.77;98412.28;5013008;28;19921;-84
2022/03/29 10:52:37;;;;;;;28.13;13.70;;;;;;;15.55;44.79;98401.59;5012105;28;20050;-84
2022/03/29 10:55:22;;;;;;;34.30;13.60;;;;;;;15.86;43.97;98402.38;5012747;28;20490;-85
2022/03/29 10:58:13;;;;;;;30.98;13.45;;;;;;;16.09;45.20;98407.88;5013392;28;20053;-85
2022/03/29 11:00:43;;;;;;;37.67;14.65;;;;;;;15.96;44.56;98401.78;5012590;28;20145;-85
2022/03/29 11:03:12;;;;;;;38.33;15.57;;;;;;;15.72;43.86;98393.53;5012146;28;20046;-85
2022/03/29 11:06:07;;;;;;;39.03;15.57;;;;;;;15.71;43.52;98383.66;5013460;28;20454;-84
2022/03/29 11:08:37;;;;;;;42.97;15.25;;;;;;;15.89;42.86;98386.28;5010616;28;20050;-84
2022/03/29 11:11:05;;;;;;;31.55;14.68;;;;;;;15.79;43.16;98366.03;5012595;28;20501;-85
2022/03/29 11:13:33;;;;;;;29.92;15.32;;;;;;;16.09;42.89;98371.38;5022138;28;20509;-84
2022/03/29 11:16:21;;;;;;;32.05;14.90;;;;;;;16.24;43.87;98348.94;5012111;28;20505;-84
2022/03/29 11:18:48;;;;;;;32.58;15.50;;;;;;;16.41;42.15;98354.50;4999755;28;20058;-84
2022/03/29 11:21:36;;;;;;;31.60;15.20;;;;;;;16.67;41.78;98350.38;5012416;28;20451;-84
2022/03/29 11:24:13;;;;;;;33.42;14.07;;;;;;;16.63;42.35;98327.25;5011457;28;20046;-85
2022/03/29 11:26:54;;;;;;;35.53;15.70;;;;;;;16.68;41.34;98330.09;5012334;28;20411;-84
2022/03/29 11:29:21;;;;;;;30.13;14.77;;;;;;;16.60;41.65;98325.81;5012836;28;20046;-84
2022/03/29 11:31:50;;;;;;;32.92;14.55;;;;;;;16.76;40.29;98321.47;5011631;28;20050;-84
2022/03/29 11:34:17;;;;;;;29.23;13.65;;;;;;;16.93;40.02;98324.25;5008656;28;20428;-84
2022/03/29 11:36:43;;;;;;;32.33;14.65;;;;;;;16.68;39.99;98313.63;5008679;28;20481;-85
2022/03/29 11:39:26;;;;;;;30.00;14.48;;;;;;;16.82;39.78;98330.63;5012064;28;20054;-84
2022/03/29 11:41:55;;;;;;;31.10;13.60;;;;;;;17.13;39.96;98301.84;5014637;28;20052;-84
2022/03/29 11:44:24;;;;;;;33.95;14.65;;;;;;;16.81;40.20;98291.34;5011591;28;20508;-84
2022/03/29 11:46:53;;;;;;;28.20;13.75;;;;;;;17.07;38.10;98300.09;5011890;28;20108;-84